Time;durP1;ratioP1;P1;durP2;ratioP2;P2;SDS_P1;SDS_P2;PMS_P1;PMS_P2;Temp;Humidity;BMP_temperature;BMP_pressure;BME280_temperature;BME280_humidity;BME280_pressure;Samples;Min_cycle;Max_cycle;Signal;HPM_P1;HPM_P2
2022/07/12 00:01:36;;;;;;;4.83;4.37;;;15.00;99.90;;;;;;5049074;28;20474;-73
2022/07/12 00:04:02;;;;;;;4.07;3.67;;;15.00;99.90;;;;;;5049154;28;20486;-73
2022/07/12 00:06:29;;;;;;;4.63;3.63;;;15.00;99.90;;;;;;5048951;28;20467;-73
2022/07/12 00:08:57;;;;;;;5.07;4.10;;;15.00;99.90;;;;;;5048943;28;20470;-73
2022/07/12 00:11:24;;;;;;;4.07;3.77;;;14.90;99.90;;;;;;5048128;28;20532;-73
2022/07/12 00:13:51;;;;;;;4.23;3.83;;;14.90;99.90;;;;;;5049237;28;20482;-73
2022/07/12 00:16:17;;;;;;;4.17;3.80;;;14.80;99.90;;;;;;5048525;28;20479;-73
2022/07/12 00:18:44;;;;;;;4.70;4.30;;;14.80;99.90;;;;;;5048654;28;20467;-73
2022/07/12 00:21:11;;;;;;;4.70;4.30;;;14.80;99.90;;;;;;5048167;28;20467;-73
2022/07/12 00:23:37;;;;;;;5.00;3.83;;;14.80;99.90;;;;;;5048639;28;20893;-73
2022/07/12 00:26:06;;;;;;;4.73;4.30;;;14.70;99.90;;;;;;5048610;28;20475;-73
2022/07/12 00:28:32;;;;;;;5.00;4.50;;;14.70;99.90;;;;;;5048872;28;20466;-72
2022/07/12 00:30:59;;;;;;;5.23;4.73;;;14.70;99.90;;;;;;5048685;28;20606;-73
2022/07/12 00:33:26;;;;;;;4.53;4.13;;;14.60;99.90;;;;;;5048358;28;20470;-73
2022/07/12 00:35:53;;;;;;;4.77;4.00;;;14.60;99.90;;;;;;5048448;28;20484;-73
2022/07/12 00:38:19;;;;;;;7.03;3.97;;;14.60;99.90;;;;;;5048474;28;20466;-73
2022/07/12 00:40:46;;;;;;;6.00;4.10;;;14.60;99.90;;;;;;5049534;28;21442;-73
2022/07/12 00:43:14;;;;;;;4.70;4.30;;;14.50;99.90;;;;;;5046456;28;20899;-73
2022/07/12 00:45:41;;;;;;;4.20;3.90;;;14.50;99.90;;;;;;5048146;28;20490;-73
2022/07/12 00:48:08;;;;;;;5.80;4.70;;;14.50;99.90;;;;;;5048131;28;20467;-73
2022/07/12 00:50:35;;;;;;;4.20;3.90;;;14.50;99.90;;;;;;5047221;28;20466;-73
2022/07/12 00:53:03;;;;;;;5.77;4.43;;;14.50;99.90;;;;;;5048039;28;20903;-73
2022/07/12 00:55:29;;;;;;;4.67;4.00;;;14.40;99.90;;;;;;5047760;28;20490;-73
2022/07/12 00:57:56;;;;;;;4.53;4.23;;;14.40;99.90;;;;;;5047980;28;20806;-74
2022/07/12 01:00:26;;;;;;;5.10;4.70;;;14.40;99.90;;;;;;5047540;28;20460;-73
2022/07/12 01:02:55;;;;;;;5.40;4.90;;;14.40;99.90;;;;;;5048067;28;21021;-73
2022/07/12 01:05:22;;;;;;;4.10;3.80;;;14.40;99.90;;;;;;5047728;28;20861;-73
2022/07/12 01:07:49;;;;;;;4.63;4.23;;;14.30;99.90;;;;;;5047769;28;20470;-73
2022/07/12 01:10:17;;;;;;;4.90;4.43;;;14.30;99.90;;;;;;5047095;28;20479;-73
2022/07/12 01:12:44;;;;;;;5.97;5.37;;;14.30;99.90;;;;;;5047502;28;20459;-73
2022/07/12 01:15:10;;;;;;;5.30;4.37;;;14.30;99.90;;;;;;5047682;28;20487;-73
2022/07/12 01:17:39;;;;;;;5.90;4.40;;;14.30;99.90;;;;;;5047659;28;20473;-72
2022/07/12 01:20:07;;;;;;;4.97;4.40;;;14.20;99.90;;;;;;5046884;28;21282;-73
2022/07/12 01:22:35;;;;;;;4.97;4.50;;;14.20;99.90;;;;;;5047294;28;20490;-73
2022/07/12 01:25:06;;;;;;;4.63;4.23;;;14.20;99.90;;;;;;5047208;28;21014;-73
2022/07/12 01:27:33;;;;;;;4.93;4.33;;;14.10;99.90;;;;;;5047239;28;20474;-73
2022/07/12 01:30:01;;;;;;;4.60;4.20;;;14.10;99.90;;;;;;5046364;28;20469;-72
2022/07/12 01:32:29;;;;;;;4.53;4.13;;;14.10;99.90;;;;;;5047135;28;20842;-73
2022/07/12 01:34:57;;;;;;;4.37;3.97;;;14.10;99.90;;;;;;5047014;28;20606;-73
2022/07/12 01:37:26;;;;;;;4.83;4.37;;;14.10;99.90;;;;;;5046946;28;20976;-74
2022/07/12 01:39:54;;;;;;;5.10;4.60;;;14.10;99.90;;;;;;5046680;28;20455;-73
2022/07/12 01:42:23;;;;;;;5.43;4.70;;;14.10;99.90;;;;;;5047744;28;20459;-73
2022/07/12 01:44:50;;;;;;;6.67;4.80;;;14.10;99.90;;;;;;5112200;22;20933;-71
2022/07/12 01:47:18;;;;;;;4.60;4.20;;;14.10;99.90;;;;;;5064109;28;20450;-72
2022/07/12 01:49:45;;;;;;;4.50;3.80;;;14.10;99.90;;;;;;5069339;28;20462;-72
2022/07/12 01:52:12;;;;;;;4.60;4.20;;;14.10;99.90;;;;;;5072394;28;20462;-71
2022/07/12 01:54:39;;;;;;;3.90;3.60;;;14.00;99.90;;;;;;5071888;28;20603;-68
2022/07/12 01:57:06;;;;;;;4.57;4.17;;;14.00;99.90;;;;;;5071932;28;20805;-70
2022/07/12 01:59:35;;;;;;;4.20;3.60;;;14.00;99.90;;;;;;5071012;28;20964;-69
2022/07/12 02:02:03;;;;;;;4.73;4.33;;;14.00;99.90;;;;;;5071841;28;20455;-70
2022/07/12 02:04:30;;;;;;;4.17;3.87;;;13.90;99.90;;;;;;5071338;28;20497;-70
2022/07/12 02:06:57;;;;;;;5.13;4.63;;;14.00;99.90;;;;;;5071798;28;20869;-70
2022/07/12 02:09:24;;;;;;;4.90;4.53;;;13.90;99.90;;;;;;5071162;28;20458;-69
2022/07/12 02:11:51;;;;;;;4.87;4.50;;;14.00;99.90;;;;;;5072117;28;20466;-70
2022/07/12 02:14:18;;;;;;;4.23;3.93;;;13.90;99.90;;;;;;5071701;28;20461;-70
2022/07/12 02:16:46;;;;;;;5.07;4.57;;;13.90;99.90;;;;;;5071603;28;20466;-70
2022/07/12 02:19:14;;;;;;;4.47;4.07;;;13.90;99.90;;;;;;5071516;28;20459;-70
2022/07/12 02:21:41;;;;;;;5.27;4.50;;;13.90;99.90;;;;;;5071631;28;20462;-69
2022/07/12 02:24:08;;;;;;;5.17;4.67;;;13.80;99.90;;;;;;5071386;28;20555;-70
2022/07/12 02:26:36;;;;;;;4.37;3.93;;;13.80;99.90;;;;;;5071542;28;20826;-70
2022/07/12 02:29:03;;;;;;;4.77;4.37;;;13.80;99.90;;;;;;5071541;28;20467;-69
2022/07/12 02:31:31;;;;;;;4.70;4.30;;;13.80;99.90;;;;;;5071013;28;20477;-70
2022/07/12 02:33:59;;;;;;;4.70;4.27;;;13.80;99.90;;;;;;5071279;28;20455;-69
2022/07/12 02:36:26;;;;;;;4.80;4.37;;;13.80;99.90;;;;;;5071091;28;20485;-70
2022/07/12 02:38:52;;;;;;;4.20;3.90;;;13.80;99.90;;;;;;5071631;28;20462;-70
2022/07/12 02:41:19;;;;;;;5.43;4.67;;;13.80;99.90;;;;;;5070693;28;20458;-69
2022/07/12 02:43:46;;;;;;;5.07;4.67;;;13.80;99.90;;;;;;5074749;28;20486;-70
2022/07/12 02:46:14;;;;;;;4.20;3.80;;;13.80;99.90;;;;;;5075696;28;20485;-69
2022/07/12 02:48:41;;;;;;;5.43;3.87;;;13.80;99.90;;;;;;5075376;28;20490;-70
2022/07/12 02:51:10;;;;;;;4.63;4.03;;;13.80;99.90;;;;;;5075390;28;20458;-69
2022/07/12 02:53:38;;;;;;;4.77;4.27;;;13.80;99.90;;;;;;5075480;28;20458;-69
2022/07/12 02:56:05;;;;;;;4.60;4.20;;;13.70;99.90;;;;;;5075551;28;20997;-69
2022/07/12 02:58:32;;;;;;;4.53;4.13;;;13.70;99.90;;;;;;5075141;28;20607;-69
2022/07/12 03:00:59;;;;;;;4.47;4.07;;;13.70;99.90;;;;;;5076338;28;20466;-70
2022/07/12 03:03:25;;;;;;;3.73;3.43;;;13.70;99.90;;;;;;5076810;28;21004;-70
2022/07/12 03:05:52;;;;;;;4.60;3.40;;;13.60;99.90;;;;;;5076547;28;20911;-70
2022/07/12 03:08:21;;;;;;;4.47;4.07;;;13.60;99.90;;;;;;5076078;28;20484;-70
2022/07/12 03:10:48;;;;;;;3.87;3.47;;;13.60;99.90;;;;;;5075736;28;20462;-70
2022/07/12 03:13:14;;;;;;;4.00;3.60;;;13.60;99.90;;;;;;5076092;28;20945;-69
2022/07/12 03:15:41;;;;;;;3.60;2.90;;;13.60;99.90;;;;;;5076002;28;20989;-68
2022/07/12 03:18:09;;;;;;;3.67;3.37;;;13.60;99.90;;;;;;5076054;28;20458;-69
2022/07/12 03:20:35;;;;;;;3.43;3.13;;;13.60;99.90;;;;;;5075064;28;20527;-70
2022/07/12 03:23:02;;;;;;;4.10;3.40;;;13.60;99.90;;;;;;5075714;28;20462;-69
2022/07/12 03:25:30;;;;;;;3.03;2.73;;;13.60;99.90;;;;;;5074536;28;20486;-69
2022/07/12 03:27:57;;;;;;;3.27;3.07;;;13.60;99.90;;;;;;5074984;28;20458;-70
2022/07/12 03:30:24;;;;;;;3.50;3.20;;;13.60;99.90;;;;;;5073807;28;20492;-70
2022/07/12 03:32:50;;;;;;;4.07;3.40;;;13.60;99.90;;;;;;5061821;28;20462;-70
2022/07/12 03:35:17;;;;;;;3.23;2.90;;;13.60;99.90;;;;;;5053289;28;20502;-70
2022/07/12 03:37:45;;;;;;;3.10;2.80;;;13.60;99.90;;;;;;5034597;28;20459;-70
2022/07/12 03:40:13;;;;;;;3.20;2.93;;;13.60;99.90;;;;;;5032464;28;20459;-70
2022/07/12 03:42:42;;;;;;;3.43;3.13;;;13.50;99.90;;;;;;5033200;28;20468;-70
2022/07/12 03:45:09;;;;;;;3.27;2.97;;;13.50;99.90;;;;;;5033025;28;20998;-70
2022/07/12 03:47:37;;;;;;;3.70;3.40;;;13.50;99.90;;;;;;5036830;28;20463;-70
2022/07/12 03:50:05;;;;;;;3.40;3.00;;;13.50;99.90;;;;;;5052357;28;20485;-68
2022/07/12 03:52:32;;;;;;;3.13;2.80;;;13.50;99.90;;;;;;5052302;28;20943;-71
2022/07/12 03:55:01;;;;;;;3.63;3.33;;;13.50;99.90;;;;;;5053065;28;20908;-71
2022/07/12 03:57:28;;;;;;;3.40;3.13;;;13.60;99.90;;;;;;5037658;28;20468;-71
2022/07/12 03:59:57;;;;;;;5.20;3.20;;;13.60;99.90;;;;;;5033226;28;20464;-72
2022/07/12 04:02:24;;;;;;;2.97;2.70;;;13.60;99.90;;;;;;5032262;28;20496;-72
2022/07/12 04:04:51;;;;;;;3.33;3.03;;;13.60;99.90;;;;;;5032960;28;20579;-72
2022/07/12 04:07:18;;;;;;;3.27;2.80;;;13.60;99.90;;;;;;5032773;28;20460;-72
2022/07/12 04:09:45;;;;;;;3.60;3.30;;;13.60;99.90;;;;;;5033701;28;20465;-71
2022/07/12 04:12:12;;;;;;;5.10;3.50;;;13.60;99.90;;;;;;5034437;28;20817;-73
2022/07/12 04:14:39;;;;;;;3.60;3.30;;;13.60;99.90;;;;;;5033767;28;20476;-72
2022/07/12 04:17:07;;;;;;;3.40;3.03;;;13.60;99.90;;;;;;5034159;28;20847;-72
2022/07/12 04:19:33;;;;;;;3.10;2.80;;;13.60;99.90;;;;;;5032656;28;20471;-71
2022/07/12 04:22:01;;;;;;;3.20;2.90;;;13.60;99.90;;;;;;5032903;28;20464;-72
2022/07/12 04:24:27;;;;;;;2.90;2.60;;;13.70;99.90;;;;;;5032484;28;20491;-72
2022/07/12 04:26:54;;;;;;;3.00;2.70;;;13.70;99.90;;;;;;5033355;28;20461;-71
2022/07/12 04:29:22;;;;;;;3.37;2.93;;;13.70;99.90;;;;;;5050708;28;20466;-72
2022/07/12 04:31:49;;;;;;;3.40;3.10;;;13.70;99.90;;;;;;5050388;28;20466;-74
2022/07/12 04:34:17;;;;;;;3.30;3.00;;;13.80;99.90;;;;;;5049788;28;20464;-72
2022/07/12 04:36:44;;;;;;;4.67;3.40;;;13.70;99.90;;;;;;5049996;28;20849;-72
2022/07/12 04:39:11;;;;;;;3.20;3.00;;;13.80;99.90;;;;;;5049665;28;20463;-72
2022/07/12 04:41:38;;;;;;;2.87;2.67;;;13.90;99.90;;;;;;5049854;28;20538;-74
2022/07/12 04:44:06;;;;;;;4.77;2.83;;;13.90;99.90;;;;;;5050175;28;20487;-73
2022/07/12 04:46:32;;;;;;;3.20;2.90;;;13.90;99.90;;;;;;5051918;28;20471;-73
2022/07/12 04:48:59;;;;;;;3.10;2.80;;;14.00;99.90;;;;;;5052772;28;20810;-75
2022/07/12 04:51:27;;;;;;;3.60;3.30;;;14.00;99.90;;;;;;5053636;28;20459;-73
2022/07/12 04:53:54;;;;;;;3.10;2.70;;;14.00;99.90;;;;;;5053204;28;20491;-74
2022/07/12 04:56:21;;;;;;;3.10;2.90;;;14.10;99.90;;;;;;5053793;28;20487;-71
2022/07/12 04:58:48;;;;;;;3.70;3.30;;;14.10;99.90;;;;;;5052600;28;20474;-71
2022/07/12 05:01:15;;;;;;;4.73;2.80;;;14.20;99.90;;;;;;5051768;28;20469;-73
2022/07/12 05:03:41;;;;;;;3.30;3.00;;;14.20;99.90;;;;;;5052030;28;20915;-74
2022/07/12 05:06:08;;;;;;;3.17;2.87;;;14.20;99.90;;;;;;5051275;28;20479;-74
2022/07/12 05:08:36;;;;;;;3.50;3.20;;;14.30;99.90;;;;;;5051856;28;20494;-73
2022/07/12 05:11:03;;;;;;;3.20;2.90;;;14.40;99.90;;;;;;5051622;28;20462;-75
2022/07/12 05:13:30;;;;;;;3.80;3.47;;;14.40;99.90;;;;;;5051816;28;20474;-74
2022/07/12 05:15:57;;;;;;;4.53;3.67;;;14.50;99.90;;;;;;5052626;28;20533;-81
2022/07/12 05:18:24;;;;;;;4.17;3.77;;;14.60;99.90;;;;;;5051498;28;20460;-72
2022/07/12 05:20:50;;;;;;;3.33;3.13;;;14.60;99.90;;;;;;5051513;28;20463;-72
2022/07/12 05:23:17;;;;;;;4.20;3.80;;;14.70;99.90;;;;;;5051712;28;20486;-72
2022/07/12 05:25:45;;;;;;;4.70;4.30;;;14.80;99.90;;;;;;5051529;28;20519;-72
2022/07/12 05:28:12;;;;;;;4.17;3.80;;;14.90;99.90;;;;;;5051818;28;20456;-72
2022/07/12 05:30:39;;;;;;;4.67;3.67;;;15.00;99.90;;;;;;5051464;28;20548;-72
2022/07/12 05:33:05;;;;;;;6.80;3.97;;;15.00;99.90;;;;;;5051722;28;20463;-73
2022/07/12 05:35:32;;;;;;;3.87;3.53;;;15.10;99.90;;;;;;5051309;28;20575;-70
2022/07/12 05:37:59;;;;;;;4.13;3.83;;;15.20;99.90;;;;;;5051549;28;20463;-74
2022/07/12 05:40:26;;;;;;;7.00;3.50;;;15.30;99.90;;;;;;5050827;28;21004;-71
2022/07/12 05:42:54;;;;;;;4.37;3.97;;;15.40;99.90;;;;;;5051664;28;20466;-71
2022/07/12 05:45:22;;;;;;;3.40;3.07;;;15.50;99.90;;;;;;5051259;28;20527;-73
2022/07/12 05:47:49;;;;;;;3.77;3.37;;;15.60;99.90;;;;;;5051586;28;20455;-72
2022/07/12 05:50:16;;;;;;;4.37;3.97;;;15.70;99.90;;;;;;5050755;28;20819;-71
2022/07/12 05:55:28;;;;;;;4.10;3.70;;;15.80;99.90;;;;;;5051253;28;20459;-74
2022/07/12 05:57:56;;;;;;;4.83;3.73;;;15.90;99.90;;;;;;5051080;28;20463;-71
2022/07/12 06:00:22;;;;;;;3.77;3.37;;;16.00;99.90;;;;;;5050484;28;20471;-70
2022/07/12 06:02:49;;;;;;;3.50;3.20;;;16.00;99.90;;;;;;5051496;28;20464;-73
2022/07/12 06:05:16;;;;;;;7.53;4.17;;;16.10;99.90;;;;;;5051008;28;20869;-72
2022/07/12 06:07:42;;;;;;;4.27;3.87;;;16.10;99.90;;;;;;5051185;28;20954;-73
2022/07/12 06:10:10;;;;;;;3.50;3.20;;;16.20;99.90;;;;;;5050435;28;20463;-73
2022/07/12 06:12:37;;;;;;;4.03;2.80;;;16.30;99.90;;;;;;5050693;28;20466;-72
2022/07/12 06:15:07;;;;;;;4.27;3.47;;;16.40;99.90;;;;;;5050984;28;20486;-72
2022/07/12 06:17:34;;;;;;;4.13;3.73;;;16.50;99.90;;;;;;5050447;28;20451;-72
2022/07/12 06:20:01;;;;;;;3.60;3.30;;;16.50;99.90;;;;;;5050422;28;20467;-71
2022/07/12 06:22:27;;;;;;;3.33;3.07;;;16.60;99.90;;;;;;5050880;28;20455;-72
2022/07/12 06:24:54;;;;;;;2.47;2.27;;;16.70;99.90;;;;;;5050710;28;20836;-72
2022/07/12 06:27:21;;;;;;;2.83;2.37;;;16.80;99.90;;;;;;5050611;28;20866;-71
2022/07/12 06:29:48;;;;;;;2.23;2.00;;;16.90;99.90;;;;;;5050254;28;20470;-72
2022/07/12 06:32:17;;;;;;;2.17;1.97;;;16.90;99.90;;;;;;5050729;28;20467;-75
2022/07/12 06:34:43;;;;;;;1.50;1.40;;;17.00;99.90;;;;;;5050467;28;20930;-76
2022/07/12 06:37:12;;;;;;;1.67;1.57;;;17.10;99.90;;;;;;5052345;28;20459;-71
2022/07/12 06:39:39;;;;;;;2.53;2.33;;;17.20;99.90;;;;;;5052304;28;20525;-70
2022/07/12 06:42:06;;;;;;;1.90;1.80;;;17.30;99.90;;;;;;5053846;28;20464;-70
2022/07/12 06:44:34;;;;;;;2.07;1.67;;;17.30;99.90;;;;;;5053402;28;20483;-70
2022/07/12 06:47:01;;;;;;;1.70;1.60;;;17.40;99.90;;;;;;5054068;28;20460;-70
2022/07/12 06:49:29;;;;;;;2.33;1.90;;;17.60;99.90;;;;;;5052557;28;20473;-70
2022/07/12 06:51:56;;;;;;;2.10;1.70;;;17.70;99.90;;;;;;5053379;28;20459;-69
2022/07/12 06:54:22;;;;;;;1.63;1.43;;;17.70;99.90;;;;;;5053137;28;20478;-70
2022/07/12 06:56:49;;;;;;;1.40;1.30;;;17.80;99.90;;;;;;5053267;28;20466;-71
2022/07/12 06:59:16;;;;;;;3.20;2.00;;;17.80;99.90;;;;;;5052290;28;20860;-70
2022/07/12 07:01:43;;;;;;;1.70;1.60;;;17.90;99.90;;;;;;5052919;28;20463;-70
2022/07/12 07:04:10;;;;;;;1.73;1.63;;;18.00;99.90;;;;;;5052905;28;20517;-71
2022/07/12 07:06:38;;;;;;;1.90;1.80;;;18.00;99.90;;;;;;5052052;28;20801;-71
2022/07/12 07:09:07;;;;;;;2.30;1.90;;;18.10;99.90;;;;;;5052883;28;20880;-69
2022/07/12 07:11:34;;;;;;;2.50;1.80;;;18.20;99.90;;;;;;5052274;28;20509;-70
2022/07/12 07:14:01;;;;;;;2.20;2.00;;;18.30;99.90;;;;;;5052621;28;20550;-69
2022/07/12 07:16:28;;;;;;;1.87;1.63;;;18.40;99.90;;;;;;5052290;28;20467;-70
2022/07/12 07:18:55;;;;;;;2.40;2.03;;;18.50;99.90;;;;;;5051915;28;20462;-70
2022/07/12 07:21:21;;;;;;;1.80;1.70;;;18.50;99.90;;;;;;5051939;28;20472;-69
2022/07/12 07:23:49;;;;;;;2.23;1.97;;;18.50;99.90;;;;;;5051837;28;20456;-70
2022/07/12 07:26:16;;;;;;;2.80;1.80;;;18.60;99.90;;;;;;5051838;28;20492;-70
2022/07/12 07:31:23;;;;;;;2.87;1.90;;;18.70;99.90;;;;;;5032525;28;20541;-71
2022/07/12 07:33:50;;;;;;;2.47;1.87;;;18.80;99.90;;;;;;5056071;28;20467;-71
2022/07/12 07:36:17;;;;;;;2.20;2.00;;;18.90;99.90;;;;;;5055787;28;20625;-71
2022/07/12 07:38:43;;;;;;;3.43;1.83;;;19.00;99.90;;;;;;5056025;28;20460;-71
2022/07/12 07:41:11;;;;;;;1.60;1.50;;;19.10;99.90;;;;;;5056021;28;20463;-70
2022/07/12 07:43:38;;;;;;;2.07;1.40;;;19.20;99.90;;;;;;5078604;22;20454;-94
2022/07/12 07:46:10;;;;;;;1.10;1.00;;;19.30;99.90;;;;;;5077052;28;20479;-94
2022/07/12 07:48:37;;;;;;;2.03;1.40;;;19.40;99.90;;;;;;5070117;22;20501;-70
2022/07/12 07:51:04;;;;;;;1.57;1.30;;;19.40;99.90;;;;;;5052891;28;20451;-69
2022/07/12 07:53:30;;;;;;;2.00;1.80;;;19.50;99.90;;;;;;5053266;28;20958;-69
2022/07/12 07:55:58;;;;;;;1.30;1.20;;;19.50;99.90;;;;;;5053378;28;20502;-69
2022/07/12 07:58:26;;;;;;;1.93;1.73;;;19.60;99.90;;;;;;5053108;28;20459;-69
2022/07/12 08:00:53;;;;;;;2.00;1.50;;;19.60;99.90;;;;;;5052475;28;20455;-69
2022/07/12 08:03:20;;;;;;;2.67;2.07;;;19.70;99.90;;;;;;5053243;28;20455;-70
2022/07/12 08:05:47;;;;;;;1.70;1.60;;;19.70;99.90;;;;;;5052999;28;21148;-69
2022/07/12 08:08:14;;;;;;;5.00;1.63;;;19.80;99.90;;;;;;5053151;28;20508;-69
2022/07/12 08:10:41;;;;;;;1.97;1.70;;;19.80;99.90;;;;;;5051846;28;20460;-69
2022/07/12 08:13:08;;;;;;;1.93;1.53;;;19.90;99.90;;;;;;5052870;28;20467;-69
2022/07/12 08:15:36;;;;;;;2.87;1.80;;;20.10;99.90;;;;;;5052361;28;20482;-68
2022/07/12 08:18:03;;;;;;;1.70;1.40;;;20.20;99.90;;;;;;5052708;28;20466;-69
2022/07/12 08:20:30;;;;;;;2.00;1.57;;;20.20;99.90;;;;;;5052018;28;20509;-70
2022/07/12 08:22:56;;;;;;;2.70;1.53;;;20.40;99.90;;;;;;5052764;28;20468;-70
2022/07/12 08:25:23;;;;;;;2.03;1.73;;;20.60;99.90;;;;;;5052193;28;20495;-70
2022/07/12 08:27:50;;;;;;;3.20;1.77;;;20.70;99.90;;;;;;5052534;28;20471;-70
2022/07/12 08:30:17;;;;;;;2.70;1.33;;;20.80;99.90;;;;;;5051933;28;20471;-70
2022/07/12 08:32:48;;;;;;;1.97;1.80;;;20.90;99.90;;;;;;5052223;28;20471;-70
2022/07/12 08:35:15;;;;;;;2.30;1.50;;;21.00;99.90;;;;;;5052262;28;20850;-69
2022/07/12 08:37:42;;;;;;;1.90;1.70;;;21.00;99.90;;;;;;5052316;28;20498;-69
2022/07/12 08:40:09;;;;;;;1.57;1.47;;;21.20;99.90;;;;;;5050447;28;20464;-67
2022/07/12 08:42:36;;;;;;;2.10;1.40;;;21.30;99.90;;;;;;5051931;28;20463;-67
2022/07/12 08:45:04;;;;;;;1.67;1.50;;;21.50;99.90;;;;;;5062929;28;20513;-69
2022/07/12 08:47:31;;;;;;;2.90;1.20;;;21.60;99.90;;;;;;5070350;28;20466;-67
2022/07/12 08:50:14;;;;;;;1.60;1.33;;;21.60;99.90;;;;;;5070622;28;20557;-67
2022/07/12 08:52:43;;;;;;;1.63;1.53;;;21.70;99.90;;;;;;5070254;28;20473;-69
2022/07/12 08:55:22;;;;;;;1.73;1.43;;;21.80;99.90;;;;;;5070930;28;20857;-66
2022/07/12 08:57:50;;;;;;;1.20;1.10;;;21.80;99.90;;;;;;5070400;28;20454;-69
2022/07/12 09:00:19;;;;;;;1.73;1.53;;;21.90;99.90;;;;;;5070247;28;20462;-70
2022/07/12 09:02:49;;;;;;;2.57;1.50;;;21.90;99.90;;;;;;5070863;28;20470;-70
2022/07/12 09:05:19;;;;;;;1.70;1.20;;;22.10;99.90;;;;;;5069722;28;20884;-69
2022/07/12 09:07:46;;;;;;;2.93;1.40;;;22.20;99.90;;;;;;5071064;28;20520;-70
2022/07/12 09:10:14;;;;;;;1.67;1.30;;;22.30;99.90;;;;;;5069570;28;20463;-70
2022/07/12 09:12:41;;;;;;;2.47;1.40;;;22.40;99.90;;;;;;5070039;28;20467;-69
2022/07/12 09:15:12;;;;;;;1.93;1.20;;;22.50;99.90;;;;;;5067745;28;20486;-70
2022/07/12 09:17:39;;;;;;;3.63;1.60;;;22.50;99.90;;;;;;5070827;28;20946;-70
2022/07/12 09:20:10;;;;;;;1.50;1.23;;;22.60;99.90;;;;;;5070059;28;20958;-69
2022/07/12 09:22:38;;;;;;;1.30;1.17;;;22.60;99.90;;;;;;5070462;28;20554;-69
2022/07/12 09:25:18;;;;;;;2.27;1.60;;;22.70;99.90;;;;;;5070967;28;20488;-69
2022/07/12 09:27:49;;;;;;;2.40;1.40;;;22.80;99.90;;;;;;5070069;28;20838;-69
2022/07/12 09:30:16;;;;;;;2.27;1.40;;;22.90;99.90;;;;;;5070599;28;20508;-69
2022/07/12 09:38:23;;;;;;;2.27;1.33;;;23.10;99.90;;;;;;5070319;28;20441;-69
2022/07/12 09:40:50;;;;;;;2.27;1.67;;;23.30;99.90;;;;;;5069839;28;20563;-70
2022/07/12 09:43:19;;;;;;;1.63;1.53;;;23.40;99.90;;;;;;5070253;28;20446;-69
2022/07/12 09:45:48;;;;;;;1.43;1.33;;;23.30;99.90;;;;;;5062416;28;20493;-69
2022/07/12 09:48:15;;;;;;;2.20;1.43;;;23.20;99.90;;;;;;5030929;28;20504;-69
2022/07/12 09:50:45;;;;;;;2.10;1.70;;;23.00;99.90;;;;;;5029281;28;20460;-69
2022/07/12 09:53:15;;;;;;;1.30;1.20;;;23.00;99.90;;;;;;5030494;28;20936;-69
2022/07/12 09:55:45;;;;;;;1.30;1.20;;;23.20;99.90;;;;;;5030475;28;20490;-70
2022/07/12 09:58:14;;;;;;;1.30;1.20;;;23.20;99.90;;;;;;5030710;28;20460;-70
2022/07/12 10:00:41;;;;;;;1.50;1.40;;;23.40;99.90;;;;;;5029809;28;20530;-70
2022/07/12 10:03:09;;;;;;;1.70;1.30;;;23.40;99.90;;;;;;5030524;28;20483;-70
2022/07/12 10:05:36;;;;;;;1.53;1.37;;;23.50;99.90;;;;;;5029570;28;20578;-70
2022/07/12 10:08:03;;;;;;;2.43;1.60;;;23.50;99.90;;;;;;5030340;28;20460;-70
2022/07/12 10:10:30;;;;;;;1.60;1.43;;;23.40;99.90;;;;;;5029800;28;20471;-70
2022/07/12 10:12:59;;;;;;;1.93;1.40;;;23.50;99.90;;;;;;5029807;28;20511;-70
2022/07/12 10:15:28;;;;;;;1.30;1.20;;;23.60;99.90;;;;;;5030449;28;20487;-69
2022/07/12 10:18:01;;;;;;;2.00;1.23;;;23.70;99.90;;;;;;5060951;28;20970;-70
2022/07/12 10:20:28;;;;;;;1.47;1.30;;;23.90;99.90;;;;;;5065550;28;20814;-70
2022/07/12 10:22:56;;;;;;;1.60;1.33;;;24.10;99.90;;;;;;5070429;28;20822;-70
2022/07/12 10:25:30;;;;;;;1.53;1.20;;;24.20;99.90;;;;;;5069604;28;20486;-70
2022/07/12 10:27:59;;;;;;;1.63;1.40;;;24.30;99.90;;;;;;5069789;28;20467;-69
2022/07/12 10:30:25;;;;;;;1.33;1.20;;;24.30;99.90;;;;;;5069235;28;20496;-70
2022/07/12 10:32:56;;;;;;;1.30;1.20;;;24.40;99.90;;;;;;5070854;28;20461;-70
2022/07/12 10:35:24;;;;;;;1.30;1.13;;;24.40;99.80;;;;;;5070095;28;20470;-69
2022/07/12 10:38:20;;;;;;;3.43;1.47;;;24.50;99.90;;;;;;5070659;28;20969;-69
2022/07/12 10:40:51;;;;;;;1.50;1.30;;;24.50;99.90;;;;;;5069374;28;20594;-70
2022/07/12 10:43:22;;;;;;;1.20;1.03;;;24.60;99.90;;;;;;5070596;28;20494;-69
2022/07/12 10:45:50;;;;;;;1.40;1.17;;;24.70;99.90;;;;;;5070252;28;20482;-67
2022/07/12 10:48:24;;;;;;;1.50;1.00;;;24.70;99.90;;;;;;5070287;28;20506;-67
2022/07/12 10:50:57;;;;;;;1.80;1.30;;;24.90;99.90;;;;;;5070085;28;20551;-67
2022/07/12 10:53:26;;;;;;;3.93;1.30;;;25.00;99.90;;;;;;5070065;28;20463;-67
2022/07/12 10:56:09;;;;;;;1.33;1.20;;;25.10;99.90;;;;;;5070485;28;20474;-67
2022/07/12 10:58:39;;;;;;;2.10;1.30;;;25.10;99.90;;;;;;5067790;28;20469;-67
2022/07/12 11:01:07;;;;;;;1.30;1.03;;;25.00;99.90;;;;;;5069701;28;20458;-66
2022/07/12 11:03:40;;;;;;;1.73;1.10;;;25.10;99.90;;;;;;5032116;28;20864;-67
2022/07/12 11:06:08;;;;;;;1.40;1.30;;;25.20;99.30;;;;;;5053492;28;20494;-67
2022/07/12 11:08:52;;;;;;;1.97;1.00;;;25.40;99.90;;;;;;5052826;28;20467;-70
2022/07/12 11:11:19;;;;;;;1.33;1.10;;;25.40;99.60;;;;;;5052739;28;20550;-70
2022/07/12 11:13:47;;;;;;;1.50;1.40;;;25.40;99.70;;;;;;5052437;28;20467;-70
2022/07/12 11:16:14;;;;;;;3.57;1.33;;;25.50;99.70;;;;;;5052537;28;20847;-67
2022/07/12 11:18:41;;;;;;;1.27;1.07;;;25.60;98.30;;;;;;5052944;28;20459;-67
2022/07/12 11:21:07;;;;;;;1.37;1.20;;;25.60;99.90;;;;;;5052521;28;20470;-67
2022/07/12 11:26:11;;;;;;;1.97;1.10;;;25.70;99.00;;;;;;5513923;22;20845;-72
2022/07/12 11:28:39;;;;;;;2.13;1.30;;;25.80;98.40;;;;;;5072604;28;21125;-72
2022/07/12 11:31:09;;;;;;;1.40;1.10;;;25.80;99.00;;;;;;5072326;28;20565;-71
2022/07/12 11:33:37;;;;;;;1.50;1.20;;;25.80;99.00;;;;;;5072077;28;20465;-72
2022/07/12 11:36:06;;;;;;;1.53;1.20;;;25.80;99.50;;;;;;5072668;28;20466;-72
2022/07/12 11:41:09;;;;;;;1.10;1.00;;;26.00;98.60;;;;;;5780411;22;21027;-70
2022/07/12 11:56:33;;;;;;;1.63;1.20;;;26.30;96.60;;;;;;5615664;22;20586;-71
2022/07/12 11:59:03;;;;;;;1.13;1.00;;;26.30;97.50;;;;;;5052182;28;20648;-72
2022/07/12 12:01:30;;;;;;;1.67;1.20;;;26.30;97.50;;;;;;5051164;28;20975;-71
2022/07/12 12:03:57;;;;;;;1.20;1.10;;;26.40;96.90;;;;;;5235497;22;21815;-71
2022/07/12 12:06:24;;;;;;;1.67;1.10;;;26.40;95.90;;;;;;5052385;28;20499;-71
2022/07/12 12:11:28;;;;;;;1.20;1.10;;;26.30;96.40;;;;;;5620469;22;20864;-70
2022/07/12 12:13:58;;;;;;;1.20;1.10;;;26.30;96.50;;;;;;5049954;28;20481;-70
2022/07/12 12:16:25;;;;;;;1.20;1.10;;;26.40;95.70;;;;;;5051559;28;20579;-70
2022/07/12 12:18:52;;;;;;;1.60;1.20;;;26.50;97.10;;;;;;5051459;28;20946;-70
2022/07/12 12:21:26;;;;;;;1.57;1.17;;;26.60;96.70;;;;;;5051356;28;20550;-70
2022/07/12 12:24:09;;;;;;;1.23;1.00;;;26.70;96.50;;;;;;5051404;28;20469;-71
2022/07/12 12:26:36;;;;;;;1.30;0.90;;;26.80;96.20;;;;;;5050901;28;20491;-70
2022/07/12 12:29:05;;;;;;;1.00;0.90;;;26.70;97.80;;;;;;5051647;28;20475;-71
2022/07/12 12:31:31;;;;;;;1.73;1.10;;;26.80;97.40;;;;;;5050490;28;20935;-70
2022/07/12 12:33:58;;;;;;;1.63;1.13;;;26.90;96.40;;;;;;5052158;28;20521;-70
2022/07/12 12:36:26;;;;;;;1.10;1.00;;;27.10;96.10;;;;;;5052643;28;20488;-70
2022/07/12 12:38:55;;;;;;;1.00;0.90;;;27.10;94.70;;;;;;5052598;28;20452;-70
2022/07/12 12:41:23;;;;;;;0.80;0.80;;;27.10;94.20;;;;;;5052835;28;20460;-70
2022/07/12 12:43:57;;;;;;;1.83;1.27;;;26.90;95.10;;;;;;5052789;28;20885;-70
2022/07/12 12:46:44;;;;;;;1.40;1.00;;;27.00;95.80;;;;;;5052640;28;20519;-70
2022/07/12 12:49:10;;;;;;;1.63;1.17;;;27.10;95.50;;;;;;5052485;28;20504;-71
2022/07/12 12:51:52;;;;;;;1.17;1.07;;;27.10;95.30;;;;;;5052365;28;20464;-70
2022/07/12 12:54:32;;;;;;;1.10;1.00;;;27.30;95.40;;;;;;5052266;28;20466;-70
2022/07/12 12:56:59;;;;;;;2.73;1.53;;;27.40;96.30;;;;;;5052941;28;20487;-70
2022/07/12 12:59:26;;;;;;;1.80;1.30;;;27.40;95.20;;;;;;5052217;28;20471;-70
2022/07/12 13:01:54;;;;;;;3.47;1.57;;;27.50;96.30;;;;;;5052585;28;20461;-70
2022/07/12 13:04:21;;;;;;;1.00;0.90;;;27.60;94.60;;;;;;5052459;28;20559;-71
2022/07/12 13:06:47;;;;;;;1.23;0.97;;;27.70;95.20;;;;;;5052140;28;20459;-71
2022/07/12 13:09:14;;;;;;;1.87;1.20;;;27.80;95.80;;;;;;5052199;28;20471;-71
2022/07/12 13:11:41;;;;;;;3.27;1.00;;;27.90;96.10;;;;;;5052073;28;21027;-71
2022/07/12 13:14:08;;;;;;;1.23;0.93;;;28.00;94.30;;;;;;5052563;28;20452;-71
2022/07/12 13:16:34;;;;;;;9.77;1.73;;;28.00;93.70;;;;;;5052017;28;20491;-71
2022/07/12 13:19:02;;;;;;;1.37;1.17;;;28.00;93.00;;;;;;5052225;28;20477;-71
2022/07/12 13:21:29;;;;;;;1.00;0.80;;;27.90;93.60;;;;;;5051732;28;20983;-71
2022/07/12 13:23:55;;;;;;;0.93;0.80;;;28.00;93.00;;;;;;5051836;28;20487;-71